EDDV

Hannover Airport

Hannover, Germany
METAR EDDV 201320Z 11004KT 080V150 7000 BKN006 M03/M05 Q1019 BECMG SCT006
Observed Flight Rules
Jan-20 @ 13:20 UTC (17 minutes ago) Instrument Flight Rules
Wind Visibility Clouds
110° at 4 knots 7,001 meters
  • Broken at 600' AGL
Temperatures Readings
Current -3°C / 27°F
Dewpoint -5°C / 23°F
Humidity 86%
Altimeter 30.09" Hg
Pressure 1018.92 hPa
Elevation 54
METAR EDDV 201320Z 11004KT 080V150 7000 BKN006 M03/M05 Q1019 BECMG SCT006
Observed Flight Rules
Jan-20 @ 13:20 UTC
(17 minutes ago)
IFR
Wind Visibility
110° at 4 knots 7,001 meters
Clouds
  • Broken at 600' AGL
Temperature Dewpoint
-3°C / 27°F -5°C / 23°F
Humidity Altimeter Pressure
86% 30.09" Hg 1018.92 hPa